createdAt,value
2022-12-17T00:00:30.163Z,28.17
2022-12-17T00:03:01.247Z,29.53
2022-12-17T00:05:28.842Z,27.27
2022-12-17T00:07:59.923Z,27.37
2022-12-17T00:10:27.355Z,28.57
2022-12-17T00:12:56.442Z,29.37
2022-12-17T00:15:24.432Z,27.83
2022-12-17T00:17:51.871Z,26.30
2022-12-17T00:20:19.412Z,28.60
2022-12-17T00:22:46.848Z,25.90
2022-12-17T00:25:14.320Z,26.43
2022-12-17T00:27:41.771Z,27.33
2022-12-17T00:30:09.385Z,27.87
2022-12-17T00:32:37.240Z,27.37
2022-12-17T00:35:04.792Z,26.73
2022-12-17T00:37:32.316Z,27.27
2022-12-17T00:39:59.741Z,27.83
2022-12-17T00:42:27.196Z,28.50
2022-12-17T00:44:54.627Z,27.70
2022-12-17T00:47:23.669Z,29.13
2022-12-17T00:49:51.138Z,26.83
2022-12-17T00:52:19.440Z,27.40
2022-12-17T00:54:46.893Z,28.03
2022-12-17T00:57:14.318Z,27.87
2022-12-17T00:59:41.780Z,27.80
2022-12-17T01:02:09.350Z,26.73
2022-12-17T01:04:37.289Z,28.17
2022-12-17T01:07:04.809Z,29.13
2022-12-17T01:09:32.274Z,25.77
2022-12-17T01:11:59.708Z,27.67
2022-12-17T01:14:27.681Z,28.47
2022-12-17T01:16:56.279Z,27.20
2022-12-17T01:19:24.051Z,26.77
2022-12-17T01:21:51.511Z,26.80
2022-12-17T01:24:19.452Z,27.73
2022-12-17T01:26:47.136Z,27.73
2022-12-17T01:29:14.569Z,26.50
2022-12-17T01:31:42.045Z,26.97
2022-12-17T01:34:09.606Z,25.43
2022-12-17T01:36:37.033Z,26.20
2022-12-17T01:39:04.707Z,26.40
2022-12-17T01:41:32.915Z,24.40
2022-12-17T01:44:00.688Z,26.63
2022-12-17T01:46:29.672Z,27.80
2022-12-17T01:48:57.115Z,27.57
2022-12-17T01:51:25.258Z,26.57
2022-12-17T01:53:54.535Z,26.83
2022-12-17T01:56:24.337Z,26.43
2022-12-17T01:58:51.807Z,27.57
2022-12-17T02:01:19.779Z,26.23
2022-12-17T02:03:47.341Z,26.37
2022-12-17T02:06:28.610Z,26.33
2022-12-17T02:09:14.938Z,26.60
2022-12-17T02:11:45.432Z,28.63
2022-12-17T02:14:28.115Z,28.07
2022-12-17T02:17:00.122Z,28.37
2022-12-17T02:19:48.225Z,28.47
2022-12-17T02:22:44.898Z,27.90
2022-12-17T02:25:32.627Z,30.43
2022-12-17T02:28:00.283Z,27.97
2022-12-17T02:30:28.052Z,29.53
2022-12-17T02:32:56.284Z,28.83
2022-12-17T02:35:25.733Z,28.87
2022-12-17T02:37:53.179Z,29.07
2022-12-17T02:40:22.438Z,28.13
2022-12-17T02:42:50.182Z,30.00
2022-12-17T02:45:18.220Z,29.57
2022-12-17T02:47:45.879Z,31.37
2022-12-17T02:50:13.391Z,30.67
2022-12-17T02:52:42.994Z,29.83
2022-12-17T02:55:10.874Z,29.97
2022-12-17T02:57:43.470Z,30.27
2022-12-17T03:00:11.692Z,30.03
2022-12-17T03:02:39.275Z,28.37
2022-12-17T03:05:35.567Z,29.63
2022-12-17T03:07:54.305Z,29.60
2022-12-17T03:10:21.763Z,30.03
2022-12-17T03:12:49.614Z,28.60
2022-12-17T03:15:17.488Z,28.90
2022-12-17T03:17:45.033Z,29.07
2022-12-17T03:20:12.452Z,28.30
2022-12-17T03:22:39.920Z,30.30
2022-12-17T03:25:07.527Z,27.97
2022-12-17T03:27:35.040Z,29.03
2022-12-17T03:30:02.571Z,26.73
2022-12-17T03:32:29.981Z,28.07
2022-12-17T03:34:57.425Z,26.73
2022-12-17T03:37:24.864Z,27.73
2022-12-17T03:39:52.308Z,27.33
2022-12-17T03:42:19.752Z,25.77
2022-12-17T03:44:47.192Z,28.27
2022-12-17T03:47:14.644Z,26.70
2022-12-17T03:49:42.108Z,28.03
2022-12-17T03:52:09.555Z,27.80
2022-12-17T03:54:36.952Z,27.83
2022-12-17T03:57:04.475Z,25.17
2022-12-17T03:59:31.890Z,24.93
2022-12-17T04:01:59.638Z,25.80
2022-12-17T04:04:27.076Z,26.97
2022-12-17T04:06:54.546Z,25.77
2022-12-17T04:09:22.031Z,26.17
2022-12-17T04:11:49.500Z,22.97
2022-12-17T04:14:16.920Z,23.87
2022-12-17T04:16:44.336Z,25.40
2022-12-17T04:19:11.807Z,25.63
2022-12-17T04:21:39.248Z,23.73
2022-12-17T04:24:06.810Z,23.47
2022-12-17T04:26:34.341Z,25.03
2022-12-17T04:29:01.812Z,26.27
2022-12-17T04:31:29.360Z,25.90
2022-12-17T04:33:56.861Z,26.53
2022-12-17T04:36:24.276Z,25.37
2022-12-17T04:38:51.684Z,25.73
2022-12-17T04:41:19.283Z,24.30
2022-12-17T04:43:46.666Z,25.63
2022-12-17T04:46:14.146Z,25.70
2022-12-17T04:48:41.592Z,25.93
2022-12-17T04:51:09.137Z,25.17
2022-12-17T04:53:36.842Z,26.57
2022-12-17T04:56:04.524Z,26.53
2022-12-17T04:58:32.153Z,25.47
2022-12-17T05:00:59.681Z,25.30
2022-12-17T05:03:27.142Z,26.23
2022-12-17T05:05:54.656Z,25.50
2022-12-17T05:08:22.084Z,24.70
2022-12-17T05:10:49.481Z,22.20
2022-12-17T05:13:16.921Z,21.87
2022-12-17T05:15:48.348Z,23.57
2022-12-17T05:18:18.917Z,23.70
2022-12-17T05:20:46.387Z,24.93
2022-12-17T05:23:13.898Z,22.57
2022-12-17T05:25:41.318Z,23.37
2022-12-17T05:28:08.847Z,25.30
2022-12-17T05:30:36.274Z,24.93
2022-12-17T05:33:06.531Z,23.50
2022-12-17T05:35:33.996Z,22.30
2022-12-17T05:38:05.224Z,22.80
2022-12-17T05:40:32.678Z,21.77
2022-12-17T05:43:11.892Z,25.83
2022-12-17T05:45:39.423Z,23.60
2022-12-17T05:48:06.893Z,22.60
2022-12-17T05:50:34.303Z,22.00
2022-12-17T05:53:04.895Z,23.93
2022-12-17T05:55:32.384Z,23.83
2022-12-17T05:58:07.556Z,23.87
2022-12-17T06:00:35.019Z,21.70
2022-12-17T06:03:03.313Z,23.57
2022-12-17T06:05:30.931Z,24.80
2022-12-17T06:08:08.045Z,22.77
2022-12-17T06:10:35.517Z,22.60
2022-12-17T06:13:02.916Z,22.73
2022-12-17T06:15:30.305Z,20.33
2022-12-17T06:17:58.279Z,22.40
2022-12-17T06:20:25.704Z,23.40
2022-12-17T06:23:00.344Z,19.63
2022-12-17T06:25:27.808Z,22.33
2022-12-17T06:27:59.291Z,24.63
2022-12-17T06:30:26.872Z,22.83
2022-12-17T06:33:03.280Z,21.13
2022-12-17T06:35:30.702Z,21.73
2022-12-17T06:37:58.950Z,23.43
2022-12-17T06:40:26.384Z,21.33
2022-12-17T06:42:54.672Z,22.27
2022-12-17T06:45:22.065Z,21.17
2022-12-17T06:47:49.620Z,22.03
2022-12-17T06:50:17.064Z,21.87
2022-12-17T06:52:45.261Z,20.00
2022-12-17T06:55:12.725Z,21.20
2022-12-17T06:57:41.819Z,19.20
2022-12-17T07:00:11.865Z,18.30
2022-12-17T07:02:39.511Z,22.90
2022-12-17T07:05:07.195Z,21.93
2022-12-17T07:07:34.691Z,22.60
2022-12-17T07:10:02.190Z,24.37
2022-12-17T07:12:29.628Z,25.07
2022-12-17T07:14:57.029Z,23.47
2022-12-17T07:17:24.443Z,23.73
2022-12-17T07:19:51.870Z,22.60
2022-12-17T07:22:19.306Z,21.47
2022-12-17T07:24:46.821Z,21.83
2022-12-17T07:27:14.254Z,20.10
2022-12-17T07:29:41.765Z,19.07
2022-12-17T07:32:09.280Z,19.63
2022-12-17T07:34:36.726Z,17.27
2022-12-17T07:37:04.162Z,19.53
2022-12-17T07:39:31.563Z,21.23
2022-12-17T07:41:59.028Z,20.33
2022-12-17T07:44:26.464Z,20.40
2022-12-17T07:46:53.933Z,20.20
2022-12-17T07:49:25.632Z,19.30
2022-12-17T07:51:54.049Z,18.63
2022-12-17T07:54:21.493Z,20.33
2022-12-17T07:56:48.930Z,18.63
2022-12-17T07:59:16.401Z,19.57
2022-12-17T08:01:44.018Z,19.33
2022-12-17T08:04:11.494Z,19.00
2022-12-17T08:06:38.938Z,19.93
2022-12-17T08:09:06.479Z,19.03
2022-12-17T08:11:34.144Z,18.40
2022-12-17T08:14:01.591Z,18.13
2022-12-17T08:16:29.465Z,18.63
2022-12-17T08:18:56.962Z,19.47
2022-12-17T08:21:24.410Z,18.23
2022-12-17T08:23:51.866Z,19.80
2022-12-17T08:26:19.381Z,20.83
2022-12-17T08:28:51.035Z,20.67
2022-12-17T08:31:19.333Z,20.83
2022-12-17T08:33:46.853Z,21.23
2022-12-17T08:36:14.341Z,20.47
2022-12-17T08:38:42.196Z,19.83
2022-12-17T08:41:10.841Z,20.20
2022-12-17T08:43:38.662Z,18.73
2022-12-17T08:46:06.558Z,19.03
2022-12-17T08:48:34.162Z,19.43
2022-12-17T08:51:01.710Z,18.30
2022-12-17T08:53:34.602Z,19.10
2022-12-17T08:56:02.538Z,19.60
2022-12-17T08:58:29.998Z,19.23
2022-12-17T09:01:00.721Z,18.80
2022-12-17T09:03:28.345Z,19.60
2022-12-17T09:05:55.792Z,19.17
2022-12-17T09:08:23.243Z,17.27
2022-12-17T09:10:51.172Z,17.80
2022-12-17T09:13:18.619Z,17.53
2022-12-17T09:15:51.375Z,18.90
2022-12-17T09:18:19.682Z,17.83
2022-12-17T09:20:52.174Z,18.13
2022-12-17T09:23:19.661Z,19.07
2022-12-17T09:25:57.950Z,20.27
2022-12-17T09:28:25.718Z,18.57
2022-12-17T09:30:53.347Z,19.37
2022-12-17T09:33:20.920Z,20.13
2022-12-17T09:35:48.415Z,19.97
2022-12-17T09:38:15.865Z,18.50
2022-12-17T09:40:47.301Z,19.33
2022-12-17T09:43:17.700Z,19.73
2022-12-17T09:46:03.867Z,19.80
2022-12-17T09:48:36.408Z,19.93
2022-12-17T09:51:03.915Z,20.43
2022-12-17T09:53:44.814Z,21.47
2022-12-17T09:56:13.141Z,20.17
2022-12-17T09:58:40.931Z,20.37
2022-12-17T10:01:34.781Z,21.57
2022-12-17T10:04:03.171Z,19.23
2022-12-17T10:06:31.327Z,20.33
2022-12-17T10:09:02.902Z,21.43
2022-12-17T10:11:34.606Z,19.47
2022-12-17T10:14:03.966Z,22.57
2022-12-17T10:16:34.654Z,21.87
2022-12-17T10:19:02.369Z,22.27
2022-12-17T10:21:29.846Z,20.33
2022-12-17T10:24:07.695Z,19.30
2022-12-17T10:26:35.488Z,20.37
2022-12-17T10:29:07.440Z,21.23
2022-12-17T10:31:35.303Z,19.57
2022-12-17T10:34:02.952Z,20.30
2022-12-17T10:36:30.501Z,18.77
2022-12-17T10:38:57.989Z,21.60
2022-12-17T10:41:27.081Z,20.60
2022-12-17T10:43:54.690Z,20.13
2022-12-17T10:46:32.332Z,21.37
2022-12-17T10:49:26.041Z,22.10
2022-12-17T10:51:59.289Z,20.73
2022-12-17T10:54:31.030Z,20.43
2022-12-17T10:56:59.816Z,20.90
2022-12-17T10:59:36.279Z,20.37
2022-12-17T11:02:03.860Z,19.90
2022-12-17T11:04:32.892Z,19.50
2022-12-17T11:07:00.354Z,21.73
2022-12-17T11:09:30.564Z,20.23
2022-12-17T11:12:00.656Z,19.97
2022-12-17T11:14:30.405Z,18.90
2022-12-17T11:17:01.086Z,18.90
2022-12-17T11:19:36.844Z,19.70
2022-12-17T11:22:07.861Z,20.17
2022-12-17T11:24:46.885Z,19.13
2022-12-17T11:27:20.576Z,20.60
2022-12-17T11:29:48.519Z,17.93
2022-12-17T11:32:22.068Z,19.67
2022-12-17T11:34:56.699Z,18.50
2022-12-17T11:37:28.749Z,18.37
2022-12-17T11:40:00.925Z,17.67
2022-12-17T11:42:34.609Z,17.40
2022-12-17T11:45:10.926Z,16.80
2022-12-17T11:47:44.060Z,19.37
2022-12-17T11:50:31.774Z,19.60
2022-12-17T11:52:59.263Z,18.97
2022-12-17T11:55:38.504Z,18.70
2022-12-17T11:58:09.161Z,20.07
2022-12-17T12:00:48.877Z,18.20
2022-12-17T12:03:16.476Z,17.27
2022-12-17T12:05:54.994Z,19.53
2022-12-17T12:08:27.253Z,19.20
2022-12-17T12:11:05.768Z,19.33
2022-12-17T12:13:47.363Z,20.03
2022-12-17T12:16:36.194Z,20.70
2022-12-17T12:19:10.550Z,20.10
2022-12-17T12:21:56.920Z,22.63
2022-12-17T12:24:37.265Z,21.60
2022-12-17T12:27:04.775Z,21.43
2022-12-17T12:29:32.388Z,20.87
2022-12-17T12:32:17.036Z,20.17
2022-12-17T12:34:45.690Z,21.37
2022-12-17T12:37:14.659Z,20.27
2022-12-17T12:40:02.411Z,20.37
2022-12-17T12:42:42.780Z,19.87
2022-12-17T12:45:10.334Z,19.73
2022-12-17T12:47:50.275Z,21.07
2022-12-17T12:50:28.326Z,20.83
2022-12-17T12:52:57.346Z,22.20
2022-12-17T12:55:36.179Z,20.77
2022-12-17T12:58:23.615Z,20.83
2022-12-17T13:00:51.111Z,21.33
2022-12-17T13:03:30.453Z,21.17
2022-12-17T13:05:59.602Z,19.63
2022-12-17T13:08:27.098Z,20.47
2022-12-17T13:10:54.891Z,21.63
2022-12-17T13:13:28.682Z,22.40
2022-12-17T13:15:58.286Z,21.87
2022-12-17T13:18:25.866Z,20.93
2022-12-17T13:20:57.687Z,21.20
2022-12-17T13:23:27.936Z,21.00
2022-12-17T13:26:14.346Z,19.30
2022-12-17T13:28:42.236Z,21.73
2022-12-17T13:31:22.151Z,16.97
2022-12-17T13:33:59.018Z,21.23
2022-12-17T13:36:29.571Z,22.47
2022-12-17T13:39:12.446Z,20.90
2022-12-17T13:41:39.962Z,22.27
2022-12-17T13:44:24.622Z,21.20
2022-12-17T13:46:53.393Z,21.13
2022-12-17T13:49:20.849Z,21.97
2022-12-17T13:51:48.528Z,14.40
2022-12-17T13:54:17.511Z,21.87
2022-12-17T13:56:45.486Z,20.33
2022-12-17T13:59:24.129Z,20.97
2022-12-17T14:01:52.953Z,20.27
2022-12-17T14:04:25.494Z,19.63
2022-12-17T14:06:54.561Z,19.60
2022-12-17T14:09:23.339Z,21.13
2022-12-17T14:11:51.175Z,21.43
2022-12-17T14:14:27.704Z,21.13
2022-12-17T14:16:55.515Z,21.20
2022-12-17T14:19:23.440Z,20.77
2022-12-17T14:21:51.211Z,20.87
2022-12-17T14:24:19.755Z,20.53
2022-12-17T14:26:51.323Z,20.10
2022-12-17T14:29:25.966Z,21.53
2022-12-17T14:31:54.883Z,20.10
2022-12-17T14:34:22.438Z,21.57
2022-12-17T14:36:54.598Z,21.53
2022-12-17T14:39:24.674Z,20.93
2022-12-17T14:41:52.588Z,21.50
2022-12-17T14:44:21.943Z,22.50
2022-12-17T14:46:49.562Z,22.70
2022-12-17T14:49:21.231Z,22.07
2022-12-17T14:51:50.303Z,23.00
2022-12-17T14:54:23.870Z,21.40
2022-12-17T14:56:51.309Z,21.77
2022-12-17T14:59:24.492Z,30.63
2022-12-17T15:01:56.121Z,24.73
2022-12-17T15:04:24.308Z,22.57
2022-12-17T15:06:54.588Z,23.67
2022-12-17T15:09:22.080Z,21.37
2022-12-17T15:11:49.537Z,21.33
2022-12-17T15:14:17.048Z,23.23
2022-12-17T15:16:44.603Z,22.27
2022-12-17T15:19:12.143Z,23.77
2022-12-17T15:21:39.704Z,23.03
2022-12-17T15:24:07.727Z,21.63
2022-12-17T15:26:35.202Z,25.10
2022-12-17T15:29:02.747Z,23.23
2022-12-17T15:31:35.243Z,23.60
2022-12-17T15:34:03.185Z,24.63
2022-12-17T15:36:31.012Z,23.90
2022-12-17T15:38:58.749Z,24.83
2022-12-17T15:41:26.153Z,25.17
2022-12-17T15:43:53.634Z,24.40
2022-12-17T15:46:21.228Z,26.40
2022-12-17T15:48:50.778Z,24.37
2022-12-17T15:51:20.014Z,24.83
2022-12-17T15:53:47.865Z,29.20
2022-12-17T15:56:25.930Z,27.27
2022-12-17T15:58:53.464Z,28.23
2022-12-17T16:01:20.990Z,26.33
2022-12-17T16:03:48.703Z,24.43
2022-12-17T16:06:23.613Z,26.53
2022-12-17T16:08:51.079Z,26.77
2022-12-17T16:11:18.577Z,29.00
2022-12-17T16:13:46.111Z,26.60
2022-12-17T16:16:13.645Z,32.90
2022-12-17T16:18:41.671Z,31.80
2022-12-17T16:21:09.705Z,28.87
2022-12-17T16:23:37.277Z,30.93
2022-12-17T16:26:05.983Z,32.27
2022-12-17T16:28:33.525Z,28.20
2022-12-17T16:31:01.695Z,29.30
2022-12-17T16:33:35.771Z,28.83
2022-12-17T16:36:04.282Z,28.70
2022-12-17T16:38:31.845Z,31.57
2022-12-17T16:41:00.232Z,30.73
2022-12-17T16:43:28.916Z,29.30
2022-12-17T16:45:56.569Z,26.93
2022-12-17T16:48:24.372Z,28.97
2022-12-17T16:50:52.127Z,46.50
2022-12-17T16:53:20.011Z,36.23
2022-12-17T16:55:48.256Z,30.47
2022-12-17T16:58:16.628Z,29.87
2022-12-17T17:00:44.371Z,29.93
2022-12-17T17:03:12.022Z,27.10
2022-12-17T17:05:40.212Z,24.17
2022-12-17T17:08:07.939Z,24.60
2022-12-17T17:10:36.114Z,24.10
2022-12-17T17:13:03.550Z,25.23
2022-12-17T17:15:31.280Z,24.87
2022-12-17T17:18:01.784Z,25.63
2022-12-17T17:20:29.801Z,25.27
2022-12-17T17:22:57.321Z,23.37
2022-12-17T17:25:34.475Z,22.90
2022-12-17T17:28:11.601Z,22.53
2022-12-17T17:30:39.090Z,23.93
2022-12-17T17:33:06.574Z,22.60
2022-12-17T17:35:33.996Z,21.97
2022-12-17T17:38:01.495Z,23.73
2022-12-17T17:40:28.959Z,23.23
2022-12-17T17:42:56.382Z,22.00
2022-12-17T17:45:23.823Z,23.73
2022-12-17T17:47:51.291Z,20.30
2022-12-17T17:50:18.736Z,24.40
2022-12-17T17:52:46.223Z,22.70
2022-12-17T17:55:13.699Z,22.57
2022-12-17T17:57:41.140Z,25.40
2022-12-17T18:00:08.883Z,24.63
2022-12-17T18:02:36.526Z,23.23
2022-12-17T18:05:04.157Z,23.13
2022-12-17T18:07:31.614Z,23.60
2022-12-17T18:10:01.806Z,22.83
2022-12-17T18:12:29.269Z,24.57
2022-12-17T18:15:15.292Z,25.97
2022-12-17T18:17:44.395Z,25.03
2022-12-17T18:20:12.386Z,23.80
2022-12-17T18:22:39.887Z,25.47
2022-12-17T18:25:07.539Z,23.73
2022-12-17T18:27:35.043Z,22.43
2022-12-17T18:30:02.556Z,23.13
2022-12-17T18:32:30.136Z,22.17
2022-12-17T18:34:57.650Z,22.43
2022-12-17T18:37:25.286Z,23.40
2022-12-17T18:39:52.778Z,23.50
2022-12-17T18:42:22.648Z,22.40
2022-12-17T18:44:52.253Z,21.03
2022-12-17T18:47:19.877Z,19.37
2022-12-17T18:49:47.346Z,21.53
2022-12-17T18:52:17.045Z,20.17
2022-12-17T18:54:45.437Z,19.53
2022-12-17T18:57:13.239Z,21.33
2022-12-17T18:59:41.264Z,21.73
2022-12-17T19:02:18.206Z,20.00
2022-12-17T19:04:48.881Z,21.13
2022-12-17T19:07:16.380Z,20.50
2022-12-17T19:09:46.245Z,20.97
2022-12-17T19:12:13.783Z,20.77
2022-12-17T19:14:41.294Z,19.80
2022-12-17T19:17:10.316Z,20.37
2022-12-17T19:19:37.771Z,19.67
2022-12-17T19:22:05.278Z,20.40
2022-12-17T19:24:32.732Z,19.47
2022-12-17T19:27:00.252Z,21.57
2022-12-17T19:29:27.699Z,20.40
2022-12-17T19:31:55.359Z,20.57
2022-12-17T19:34:25.354Z,18.97
2022-12-17T19:36:52.931Z,20.93
2022-12-17T19:39:20.824Z,21.17
2022-12-17T19:41:48.705Z,21.33
2022-12-17T19:44:17.457Z,20.97
2022-12-17T19:46:45.105Z,19.93
2022-12-17T19:49:13.343Z,18.83
2022-12-17T19:51:41.415Z,19.83
2022-12-17T19:54:09.639Z,19.97
2022-12-17T19:56:37.500Z,20.10
2022-12-17T19:59:07.141Z,18.87
2022-12-17T20:01:37.868Z,18.90
2022-12-17T20:04:08.275Z,19.97
2022-12-17T20:06:51.787Z,20.10
2022-12-17T20:09:22.534Z,20.13
2022-12-17T20:11:50.816Z,19.60
2022-12-17T20:14:20.539Z,19.03
2022-12-17T20:16:54.279Z,18.90
2022-12-17T20:19:25.735Z,17.80
2022-12-17T20:21:53.930Z,18.57
2022-12-17T20:24:27.221Z,19.40
2022-12-17T20:26:59.841Z,18.20
2022-12-17T20:29:27.564Z,19.13
2022-12-17T20:31:55.772Z,19.37
2022-12-17T20:34:23.646Z,17.60
2022-12-17T20:36:52.007Z,18.33
2022-12-17T20:39:25.950Z,18.67
2022-12-17T20:41:56.794Z,19.13
2022-12-17T20:44:24.344Z,19.80
2022-12-17T20:46:51.813Z,20.40
2022-12-17T20:49:19.289Z,18.93
2022-12-17T20:51:46.987Z,21.27
2022-12-17T20:54:14.512Z,18.73
2022-12-17T20:56:42.071Z,18.57
2022-12-17T20:59:12.650Z,17.47
2022-12-17T21:01:41.261Z,17.83
2022-12-17T21:04:08.888Z,17.87
2022-12-17T21:06:40.467Z,18.70
2022-12-17T21:09:11.237Z,18.30
2022-12-17T21:11:39.171Z,17.47
2022-12-17T21:14:07.743Z,18.80
2022-12-17T21:16:35.497Z,17.53
2022-12-17T21:19:03.509Z,16.63
2022-12-17T21:21:32.876Z,17.80
2022-12-17T21:24:00.422Z,15.90
2022-12-17T21:26:30.079Z,16.00
2022-12-17T21:28:57.616Z,15.63
2022-12-17T21:31:32.817Z,16.23
2022-12-17T21:34:01.948Z,17.30
2022-12-17T21:36:32.764Z,16.10
2022-12-17T21:39:00.809Z,16.53
2022-12-17T21:41:31.619Z,15.70
2022-12-17T21:44:03.329Z,16.90
2022-12-17T21:46:31.117Z,17.17
2022-12-17T21:48:59.374Z,15.93
2022-12-17T21:51:27.131Z,16.07
2022-12-17T21:53:55.920Z,16.67
2022-12-17T21:56:24.005Z,15.60
2022-12-17T21:58:56.500Z,15.80
2022-12-17T22:01:25.407Z,16.77
2022-12-17T22:03:54.535Z,15.37
2022-12-17T22:06:24.396Z,15.50
2022-12-17T22:09:00.856Z,16.80
2022-12-17T22:11:41.976Z,17.10
2022-12-17T22:14:17.016Z,16.10
2022-12-17T22:16:49.682Z,15.50
2022-12-17T22:19:19.062Z,15.37
2022-12-17T22:21:50.808Z,15.60
2022-12-17T22:24:19.449Z,16.57
2022-12-17T22:26:47.243Z,16.47
2022-12-17T22:29:14.750Z,15.27
2022-12-17T22:31:42.302Z,15.97
2022-12-17T22:34:55.200Z,16.07
2022-12-17T22:38:13.770Z,16.30
2022-12-17T22:42:29.312Z,14.77
2022-12-17T22:44:37.804Z,16.90
2022-12-17T22:45:22.780Z,15.37
2022-12-17T22:47:50.982Z,15.43
2022-12-17T22:50:21.882Z,15.90
2022-12-17T22:52:53.526Z,16.97
2022-12-17T22:55:21.431Z,16.00
2022-12-17T22:57:49.432Z,15.90
2022-12-17T23:00:17.592Z,14.70
2022-12-17T23:02:45.077Z,14.50
2022-12-17T23:05:13.046Z,14.67
2022-12-17T23:07:43.683Z,13.43
2022-12-17T23:10:11.199Z,14.13
2022-12-17T23:12:38.646Z,13.47
2022-12-17T23:15:06.493Z,13.40
2022-12-17T23:17:35.397Z,15.13
2022-12-17T23:20:03.019Z,14.73
2022-12-17T23:22:30.571Z,14.27
2022-12-17T23:24:58.023Z,13.87
2022-12-17T23:27:25.511Z,12.53
2022-12-17T23:29:56.017Z,12.10
2022-12-17T23:32:23.694Z,18.13
2022-12-17T23:34:51.215Z,16.00
2022-12-17T23:37:18.692Z,15.00
2022-12-17T23:39:46.181Z,15.57
2022-12-17T23:42:13.734Z,15.17
2022-12-17T23:44:41.258Z,15.23
2022-12-17T23:47:08.745Z,14.87
2022-12-17T23:49:36.176Z,16.53
2022-12-17T23:52:03.688Z,16.13
2022-12-17T23:54:31.140Z,15.17
2022-12-17T23:56:58.682Z,14.60
2022-12-17T23:59:26.299Z,14.70
